Latest Coastal Weather Observations for Port Augusta

IDS60701

Issued at 5:51 pm CDT Thursday 18 December 2014 (issued every 10 minutes, with the page automatically refreshed every 10 minutes)

About coastal observations | Map of coastal stations | Coastal observations for SA | Marine services | Other Formats
Station Details ID: 018201 Name: PORT AUGUSTA AERO Lat: -32.51 Lon: 137.72 Height: 13.97 m
Data from the previous 72 hours. | See also: Recent months at Port Augusta
Date/Time
CDT
Temp

°C
Wind Pressure Rain
since 9am
mm
Weather Cloud Vis
km
Sea
Height
m
Swell
Dir
 
Speed
knots
Gust
knots
hPa Trend Height
m
Period
s
Dir
18/05:30pm 24.5 SSE 21 27 1012.4 - 0.0 - - - - - - -
18/05:00pm 24.8 SE 20 27 1012.0 - 0.0 - - - - - - -
18/04:30pm 25.0 SE 20 26 1011.9 - 0.0 - - - - - - -
18/04:00pm 25.1 SE 19 25 1011.8 - 0.0 - - - - - - -
18/03:30pm 24.7 SE 17 24 1012.0 - 0.0 - - - - - - -
18/03:00pm 24.3 SE 18 26 1011.8 - 0.0 - - - - - - -
18/02:30pm 24.2 SE 18 27 1012.0 - 0.0 - - - - - - -
18/02:00pm 24.2 SE 21 26 1012.1 - 0.0 - - - - - - -
18/01:30pm 24.6 SE 20 26 1012.3 - 0.0 - - - - - - -
18/01:00pm 24.0 SE 18 23 1012.5 - 0.0 - - - - - - -
18/12:30pm 23.8 SE 16 22 1012.5 - 0.0 - - - - - - -
18/12:00pm 22.6 SE 15 20 1012.6 - 0.0 - - - - - - -
18/11:30am 22.2 ESE 14 18 1012.7 - 0.0 - - - - - - -
18/11:00am 21.6 SE 13 17 1012.7 - 0.0 - - - - - - -
18/10:30am 20.9 ESE 11 15 1012.9 - 0.0 - - - - - - -
18/10:00am 20.3 ESE 11 16 1012.9 - 0.0 - - - - - - -
18/09:30am 20.2 SSE 12 16 1012.8 - 0.0 - - - - - - -
18/09:00am 19.3 SSE 12 17 1012.4 - 0.0 - - - - - - -
18/08:30am 18.7 SSE 13 17 1012.1 - 0.0 - - - - - - -
18/08:00am 18.6 SSE 13 16 1011.7 - 0.0 - - - - - - -
18/07:30am 17.8 SSE 12 15 1011.4 - 0.0 - - - - - - -
18/07:00am 17.0 S 7 9 1010.8 - 0.0 - - - - - - -
18/06:30am 15.5 S 7 9 1010.3 - 0.0 - - - - - - -
18/06:00am 13.9 ESE 4 5 1009.6 - 0.0 - - - - - - -
18/05:30am 14.2 CALM 0 0 1009.5 - 0.0 - - - - - - -
18/05:00am 15.3 SSE 5 8 1009.1 - 0.0 - - - - - - -
18/04:30am 16.1 S 6 7 1009.1 - 0.0 - - - - - - -
18/04:00am 16.2 SSW 7 10 1008.9 - 0.0 - - - - - - -
18/03:30am 16.2 S 5 9 1008.3 - 0.0 - - - - - - -
18/03:00am 16.5 SE 7 9 1007.8 - 0.0 - - - - - - -
18/02:30am 16.5 ESE 12 15 1007.7 - 0.0 - - - - - - -
18/02:00am 17.6 SE 12 16 1008.0 - 0.0 - - - - - - -
18/01:30am 18.2 SSE 14 20 1008.1 - 0.0 - - - - - - -
18/01:00am 17.9 S 14 17 1008.4 - 0.0 - - - - - - -
18/12:30am 18.6 S 15 22 1008.4 - 0.0 - - - - - - -
18/12:00am 19.1 S 12 20 1008.6 - 0.0 - - - - - - -
 
Date/Time
CDT
Temp

°C
Wind Pressure Rain
since 9am
mm
Weather Cloud Vis
km
Sea
Height
m
Swell
Dir
 
Speed
knots
Gust
knots
hPa Trend Height
m
Period
s
Dir
17/11:30pm 19.9 S 16 19 1008.1 - 0.0 - - - - - - -
17/11:00pm 21.1 S 12 15 1008.2 - 0.0 - - - - - - -
17/10:30pm 22.0 S 12 18 1007.8 - 0.0 - - - - - - -
17/10:00pm 23.4 S 12 17 1007.3 - 0.0 - - - - - - -
17/09:30pm 23.5 SSE 13 18 1006.9 - 0.0 - - - - - - -
17/09:00pm 23.7 SSE 14 18 1006.2 - 0.0 - - - - - - -
17/08:30pm 24.4 SSE 15 18 1005.9 - 0.0 - - - - - - -
17/08:00pm 25.4 SE 13 17 1005.9 - 0.0 - - - - - - -
17/07:30pm 26.3 SSE 13 18 1005.5 - 0.0 - - - - - - -
17/07:00pm 26.8 SSE 14 19 1005.2 - 0.0 - - - - - - -
17/06:30pm 26.7 SE 16 19 1005.0 - 0.0 - - - - - - -
17/06:00pm 27.1 SE 14 18 1004.8 - 0.0 - - - - - - -
17/05:30pm 27.0 SE 13 16 1005.1 - 0.0 - - - - - - -
17/05:00pm 26.8 SE 14 18 1005.4 - 0.0 - - - - - - -
17/04:30pm 26.7 SE 14 19 1005.6 - 0.0 - - - - - - -
17/04:00pm 27.7 SE 12 15 1006.4 - 0.0 - - - - - - -
17/03:30pm 27.2 ESE 8 12 1006.8 - 0.0 - - - - - - -
17/03:00pm 26.5 SSE 9 15 1007.2 - 0.0 - - - - - - -
17/02:30pm 26.3 SSE 7 11 1007.6 - 0.0 - - - - - - -
17/02:00pm 25.6 SSE 7 13 1008.2 - 0.0 - - - - - - -
17/01:30pm 25.0 SW 6 10 1008.7 - 0.0 - - - - - - -
17/01:00pm 24.2 W 6 10 1009.4 - 0.0 - - - - - - -
17/12:30pm 22.7 WNW 4 6 1009.9 - 0.0 - - - - - - -
17/12:00pm 22.9 SSW 7 10 1010.1 - 0.0 - - - - - - -
17/11:30am 21.5 S 5 9 1010.4 - 0.0 - - - - - - -
17/11:00am 20.4 SSE 8 14 1010.8 - 0.0 - - - - - - -
17/10:30am 20.0 S 12 20 1010.7 - 0.0 - - - - - - -
17/10:00am 19.2 SSE 13 20 1010.7 - 0.0 - - - - - - -
17/09:30am 18.6 SSE 12 16 1011.1 - 0.0 - - - - - - -
17/09:00am 17.9 SSE 10 15 1011.3 - 0.0 - - - - - - -
17/08:30am 17.5 ESE 12 16 1011.2 - 0.0 - - - - - - -
17/08:00am 17.0 SE 11 15 1011.3 - 0.0 - - - - - - -
17/07:30am 16.2 SE 8 11 1011.3 - 0.0 - - - - - - -
17/07:00am 15.4 SE 8 11 1011.0 - 0.0 - Partly cloudy - - - - -
17/06:30am 15.4 SE 7 10 1010.9 - 0.0 - Cloudy - - - - -
17/06:00am 15.2 SE 10 12 1010.2 - 0.0 - Cloudy - - - - -
17/05:30am 15.2 ESE 9 12 1009.9 - 0.0 - Cloudy - - - - -
17/05:00am 15.3 SE 11 15 1009.9 - 0.0 - Cloudy - - - - -
17/04:30am 14.9 SE 11 15 1009.9 - 0.0 - Cloudy - - - - -
17/04:00am 15.0 SE 9 13 1009.6 - 0.0 - Partly cloudy - - - - -
17/03:30am 15.1 SE 10 14 1009.3 - 0.0 - Partly cloudy - - - - -
17/03:00am 15.1 SE 9 13 1009.3 - 0.0 - - - - - - -
17/02:30am 15.4 SE 10 13 1009.2 - 0.0 - Partly cloudy - - - - -
17/02:00am 15.9 SE 10 15 1009.3 - 0.0 - Partly cloudy - - - - -
17/01:30am 16.4 SE 11 15 1009.6 - 0.0 - Partly cloudy - - - - -
17/01:00am 16.7 SSE 10 14 1009.6 - 0.0 - Partly cloudy - - - - -
17/12:30am 16.9 S 14 19 1009.5 - 0.0 - - - - - - -
17/12:00am 17.1 S 16 20 1009.4 - 0.0 - - - - - - -
 
Date/Time
CDT
Temp

°C
Wind Pressure Rain
since 9am
mm
Weather Cloud Vis
km
Sea
Height
m
Swell
Dir
 
Speed
knots
Gust
knots
hPa Trend Height
m
Period
s
Dir
16/11:30pm 17.2 S 16 21 1009.7 - 0.0 - - - - - - -
16/11:00pm 17.3 S 18 23 1009.5 - 0.0 - - - - - - -
16/10:30pm 17.9 S 18 25 1009.5 - 0.0 - - - - - - -
16/10:00pm 18.2 S 18 25 1009.4 - 0.0 - - - - - - -
16/09:30pm 18.5 SSE 19 27 1009.1 - 0.0 - - - - - - -
16/09:00pm 18.9 SSE 21 28 1008.6 - 0.0 - - - - - - -
16/08:30pm 19.2 S 24 30 1007.9 - 0.0 - - - - - - -
16/08:00pm 19.9 S 23 29 1007.4 - 0.0 - - - - - - -
16/07:30pm 20.9 S 25 32 1006.7 - 0.0 - - - - - - -
16/07:00pm 21.8 S 24 33 1005.8 - 0.0 - - - - - - -
16/06:30pm 22.8 SSE 25 32 1005.4 - 0.0 - - - - - - -
16/06:00pm 23.6 SSE 26 33 1004.7 - 0.0 - - - - - - -
16/05:30pm 24.6 SSE 26 34 1004.4 - 0.0 - - - - - - -
16/05:00pm 25.9 SSE 25 33 1004.2 - 0.0 - - - - - - -
16/04:30pm 27.5 SSE 27 34 1003.9 - 0.0 - - - - - - -
16/04:00pm 27.8 SSE 26 33 1003.5 - 0.0 - - - - - - -
16/03:30pm 28.6 SE 23 29 1003.3 - 0.0 - Partly cloudy - - - - -
16/03:29pm 28.4 SE 25 29 1003.2 - 0.0 - Partly cloudy - - - - -
16/03:01pm 32.8 SSW 16 30 1003.4 - 0.0 - Partly cloudy - - - - -
16/03:00pm 32.8 SSW 16 21 1003.3 - 0.0 - Cloudy - - - - -
16/02:30pm 32.8 SW 14 21 1003.5 - 0.0 - Partly cloudy - - - - -
16/02:00pm 31.7 WSW 16 28 1003.6 - 0.0 - Partly cloudy - - - - -
16/01:58pm 32.8 WSW 16 28 1003.4 - 0.0 - Partly cloudy - - - - -
16/01:30pm 34.3 WSW 13 20 1003.6 - 0.0 - Partly cloudy - - - - -
16/01:00pm 33.7 WSW 15 25 1003.8 - 0.0 - Partly cloudy - - - - -
16/12:58pm 33.3 WSW 15 25 1003.7 - 0.0 - Partly cloudy - - - - -
16/12:30pm 31.3 SW 12 24 1004.0 - 0.0 - Partly cloudy - - - - -
16/12:00pm 31.5 SW 14 20 1003.9 - 0.0 - Cloudy - - - - -
16/11:30am 30.0 WSW 15 19 1004.0 - 0.0 - Cloudy - - - - -
16/11:00am 30.3 WSW 7 12 1003.9 - 0.0 - Partly cloudy - - - - -
16/10:30am 29.5 W 14 20 1004.2 - 0.0 - Partly cloudy - - - - -
16/10:00am 27.8 WNW 10 15 1004.4 - 0.0 - Partly cloudy - - - - -
16/09:30am 25.0 NW 6 9 1004.1 - 0.0 - Partly cloudy - - - - -
16/09:00am 23.2 NNW 8 10 1003.7 - 0.0 - - - - - - -
16/08:30am 21.4 NNW 7 10 1003.6 - 0.0 - - - - - - -
16/08:00am 20.5 WNW 4 7 1003.2 - 0.0 - - - - - - -
16/07:30am 18.7 W 4 5 1003.0 - 0.0 - - - - - - -
16/07:00am 16.7 WSW 5 7 1002.8 - 0.0 - - - - - - -
16/06:30am 14.8 W 7 8 1002.5 - 0.0 - - - - - - -
16/06:00am 14.6 W 3 4 1002.1 - 0.0 - - - - - - -
16/05:30am 15.0 WSW 4 5 1002.2 - 0.0 - - - - - - -
16/05:00am 15.2 WNW 1 6 1002.4 - 0.0 - - - - - - -
16/04:30am 16.3 SW 3 4 1002.1 - 0.0 - - - - - - -
16/04:00am 16.8 SW 4 5 1002.2 - 0.0 - - - - - - -
16/03:30am 18.1 SW 7 8 1002.3 - 0.0 - - - - - - -
16/03:00am 18.8 SW 9 11 1002.2 - 0.0 - - - - - - -
16/02:30am 19.1 SW 9 10 1002.2 - 0.0 - - - - - - -
16/02:00am 18.9 SW 6 7 1002.4 - 0.0 - - - - - - -
16/01:30am 19.7 SSW 9 12 1002.2 - 0.0 - - - - - - -
16/01:00am 19.5 SW 6 8 1002.4 - 0.0 - - - - - - -
16/12:30am 20.3 S 6 8 1002.0 - 0.0 - - - - - - -
16/12:00am 20.5 SSE 9 10 1002.3 - 0.0 - - - - - - -
 
Date/Time
CDT
Temp

°C
Wind Pressure Rain
since 9am
mm
Weather Cloud Vis
km
Sea
Height
m
Swell
Dir
 
Speed
knots
Gust
knots
hPa Trend Height
m
Period
s
Dir
15/11:30pm 20.9 SSE 8 9 1003.4 - 0.0 - - - - - - -
15/11:00pm 21.4 S 12 16 1003.1 - 0.0 - - - - - - -
15/10:30pm 21.4 S 9 13 1003.6 - 0.0 - - - - - - -
15/10:00pm 21.7 SSE 15 20 1002.7 - 0.0 - - - - - - -
15/09:30pm 22.3 SE 15 23 1003.1 - 0.0 - - - - - - -
15/09:00pm 22.8 SE 18 22 1002.5 - 0.0 - - - - - - -
15/08:30pm 23.4 SE 18 22 1002.6 - 0.0 - - - - - - -
15/08:00pm 24.5 SSE 19 24 1002.6 - 0.0 - - - - - - -
15/07:30pm 25.0 SE 18 24 1002.4 - 0.0 - - - - - - -
15/07:00pm 26.1 SE 19 24 1002.4 - 0.0 - - - - - - -
15/06:30pm 26.1 SE 19 23 1002.3 - 0.0 - - - - - - -
15/06:00pm 26.2 SE 19 24 1002.2 - 0.0 - - - - - - -

Other Formats:

Comma delimited format used in spreadsheet applications
http://www.bom.gov.au/fwo/IDS60701/IDS60701.95666.axf

JavaScript Object Notation format (JSON) in row-major order
http://www.bom.gov.au/fwo/IDS60701/IDS60701.95666.json